Time;durP1;ratioP1;P1;durP2;ratioP2;P2;SDS_P1;SDS_P2;PMS_P1;PMS_P2;Temp;Humidity;BMP_temperature;BMP_pressure;BME280_temperature;BME280_humidity;BME280_pressure;Samples;Min_cycle;Max_cycle;Signal;HPM_P1;HPM_P2
2021/12/01 00:00:53;;;;;;;0.10;0.10;;;6.80;99.90;;;;;;4928340;29;20675;-50
2021/12/01 00:03:23;;;;;;;0.40;0.20;;;6.70;99.90;;;;;;4932701;29;20197;-49
2021/12/01 00:05:51;;;;;;;0.00;0.00;;;6.70;99.90;;;;;;4928510;29;20304;-48
2021/12/01 00:08:19;;;;;;;0.10;0.10;;;6.70;99.90;;;;;;4933438;29;20197;-50
2021/12/01 00:10:55;;;;;;;0.03;0.03;;;6.70;99.90;;;;;;4947392;29;20292;-50
2021/12/01 00:13:25;;;;;;;0.00;0.00;;;6.70;99.90;;;;;;4933816;29;20203;-50
2021/12/01 00:15:53;;;;;;;0.20;0.10;;;6.70;99.90;;;;;;4930627;29;20227;-51
2021/12/01 00:18:22;;;;;;;0.07;0.07;;;6.60;99.90;;;;;;4929596;29;20185;-52
2021/12/01 00:20:50;;;;;;;0.10;0.10;;;6.60;99.90;;;;;;4931788;29;20194;-49
2021/12/01 00:23:18;;;;;;;0.27;0.27;;;6.60;99.90;;;;;;4933804;29;20212;-49
2021/12/01 00:25:47;;;;;;;0.13;0.10;;;6.50;99.90;;;;;;4931524;29;20217;-48
2021/12/01 00:28:15;;;;;;;0.00;0.00;;;7.00;99.90;;;;;;4934171;29;20204;-50
2021/12/01 00:30:43;;;;;;;2.00;0.17;;;6.70;99.90;;;;;;4920122;29;20283;-50
2021/12/01 00:33:13;;;;;;;0.20;0.20;;;6.50;99.90;;;;;;4931332;29;20607;-49
2021/12/01 00:35:45;;;;;;;0.20;0.20;;;6.60;99.90;;;;;;4946088;29;20220;-50
2021/12/01 00:38:13;;;;;;;0.73;0.20;;;6.60;99.90;;;;;;4930689;29;20193;-51
2021/12/01 00:40:41;;;;;;;2.27;2.17;;;6.50;99.90;;;;;;4923406;29;20217;-49
2021/12/01 00:43:16;;;;;;;0.40;0.40;;;6.80;99.90;;;;;;4930873;29;20188;-48
2021/12/01 00:45:49;;;;;;;0.20;0.20;;;6.50;99.90;;;;;;4929522;29;20304;-48
2021/12/01 00:48:19;;;;;;;0.17;0.17;;;6.60;99.90;;;;;;4941364;29;20202;-49
2021/12/01 00:50:49;;;;;;;0.07;0.07;;;6.60;99.90;;;;;;4931717;29;20180;-48
2021/12/01 00:53:16;;;;;;;0.10;0.10;;;6.60;99.90;;;;;;4931359;29;20209;-51
2021/12/01 00:55:46;;;;;;;0.20;0.20;;;6.50;99.90;;;;;;4931568;29;20246;-48
2021/12/01 00:58:15;;;;;;;0.37;0.20;;;6.60;99.90;;;;;;4931853;29;20197;-49
2021/12/01 01:00:44;;;;;;;0.10;0.10;;;6.50;99.90;;;;;;4925766;29;20213;-48
2021/12/01 01:03:12;;;;;;;0.77;0.37;;;6.50;99.90;;;;;;4930979;29;20193;-51
2021/12/01 01:05:40;;;;;;;0.23;0.20;;;6.50;99.90;;;;;;4926055;29;20679;-53
2021/12/01 01:08:10;;;;;;;0.37;0.20;;;6.50;99.90;;;;;;4934674;29;20199;-49
2021/12/01 01:16:25;;;;;;;0.20;0.20;;;6.40;99.90;;;;;;4856251;29;20219;-48
2021/12/01 01:18:57;;;;;;;0.10;0.10;;;6.40;99.90;;;;;;4926021;29;20221;-52
2021/12/01 01:21:27;;;;;;;0.30;0.20;;;6.40;99.90;;;;;;4931792;29;20713;-49
2021/12/01 01:23:56;;;;;;;0.30;0.30;;;6.50;99.90;;;;;;4928811;29;20190;-49
2021/12/01 01:26:25;;;;;;;0.00;0.00;;;6.50;99.90;;;;;;4921656;29;20228;-52
2021/12/01 01:28:54;;;;;;;0.40;0.40;;;6.60;99.90;;;;;;4924376;29;20197;-49
2021/12/01 01:31:22;;;;;;;0.30;0.20;;;6.50;99.90;;;;;;4928082;29;20219;-52
2021/12/01 01:33:53;;;;;;;0.63;0.23;;;6.50;99.90;;;;;;4930062;29;20195;-48
2021/12/01 01:36:21;;;;;;;0.30;0.10;;;6.40;99.90;;;;;;4929426;29;20217;-52
2021/12/01 01:38:49;;;;;;;0.30;0.20;;;6.40;99.90;;;;;;4927678;29;20202;-49
2021/12/01 01:41:34;;;;;;;0.17;0.17;;;6.40;99.90;;;;;;4928948;29;20214;-48
2021/12/01 01:44:02;;;;;;;0.10;0.10;;;6.40;99.90;;;;;;4941092;28;20651;-51
2021/12/01 01:46:32;;;;;;;0.10;0.10;;;6.40;99.90;;;;;;4931283;29;20292;-50
2021/12/01 01:49:08;;;;;;;0.10;0.10;;;6.40;99.90;;;;;;4937126;29;20197;-51
2021/12/01 01:51:39;;;;;;;0.30;0.20;;;6.40;99.90;;;;;;4932211;29;20214;-48
2021/12/01 01:54:07;;;;;;;0.17;0.10;;;6.40;99.90;;;;;;4932328;29;20212;-51
2021/12/01 01:56:37;;;;;;;0.20;0.20;;;6.40;99.90;;;;;;4931796;29;20220;-52
2021/12/01 01:59:05;;;;;;;0.60;0.30;;;6.40;99.90;;;;;;4928165;29;20200;-50
2021/12/01 02:01:44;;;;;;;0.20;0.17;;;6.30;99.90;;;;;;4929922;29;20201;-51
2021/12/01 02:04:15;;;;;;;0.23;0.10;;;6.50;99.90;;;;;;4932007;29;20225;-50
2021/12/01 02:06:43;;;;;;;0.20;0.10;;;6.40;99.90;;;;;;4934317;29;20593;-50
2021/12/01 02:09:11;;;;;;;0.27;0.10;;;6.40;99.90;;;;;;4934707;29;20197;-50
2021/12/01 02:11:40;;;;;;;0.50;0.30;;;6.30;99.90;;;;;;4938751;29;20196;-49
2021/12/01 02:14:09;;;;;;;0.13;0.13;;;6.40;99.90;;;;;;4925391;29;20185;-51
2021/12/01 02:16:37;;;;;;;0.00;0.00;;;6.40;99.90;;;;;;4930136;29;20212;-48
2021/12/01 02:19:05;;;;;;;0.13;0.10;;;6.40;99.90;;;;;;4933671;29;20207;-50
2021/12/01 02:21:35;;;;;;;0.10;0.10;;;6.40;99.90;;;;;;4936963;29;20198;-50
2021/12/01 02:24:05;;;;;;;0.30;0.20;;;6.40;99.90;;;;;;4931748;29;20193;-50
2021/12/01 02:26:38;;;;;;;0.00;0.00;;;6.40;99.90;;;;;;4935474;29;20638;-49
2021/12/01 02:29:08;;;;;;;0.93;0.30;;;6.40;99.90;;;;;;4932581;29;20186;-50
2021/12/01 02:31:36;;;;;;;0.30;0.30;;;6.40;99.90;;;;;;4932905;29;20192;-52
2021/12/01 02:34:07;;;;;;;0.27;0.20;;;6.40;99.90;;;;;;4934032;29;20196;-49
2021/12/01 02:36:37;;;;;;;0.63;0.20;;;6.20;99.90;;;;;;4925821;29;20740;-51
2021/12/01 02:39:09;;;;;;;0.00;0.00;;;6.30;99.90;;;;;;4925761;29;20193;-52
2021/12/01 02:41:37;;;;;;;0.20;0.20;;;6.30;99.90;;;;;;4930381;29;20209;-49
2021/12/01 02:44:07;;;;;;;0.17;0.13;;;6.20;99.90;;;;;;4931081;29;20217;-51
2021/12/01 02:50:23;;;;;;;0.23;0.20;;;6.20;99.90;;;;;;4924609;29;20185;-48
2021/12/01 02:52:52;;;;;;;0.10;0.10;;;6.20;99.90;;;;;;4928941;29;20202;-49
2021/12/01 02:55:21;;;;;;;0.10;0.10;;;6.10;99.90;;;;;;4930429;29;20217;-49
2021/12/01 02:57:51;;;;;;;0.73;0.10;;;6.10;99.90;;;;;;4932270;29;20200;-48
2021/12/01 03:00:21;;;;;;;0.20;0.20;;;6.00;99.90;;;;;;4939032;29;20204;-48
2021/12/01 03:02:49;;;;;;;0.30;0.10;;;6.00;99.90;;;;;;4931461;29;20205;-50
2021/12/01 03:05:18;;;;;;;0.30;0.03;;;6.00;99.90;;;;;;4944562;28;20227;-50
2021/12/01 03:07:46;;;;;;;0.00;0.00;;;6.00;99.90;;;;;;4932469;29;20204;-53
2021/12/01 03:10:17;;;;;;;0.77;0.07;;;6.00;99.90;;;;;;4934236;29;20677;-48
2021/12/01 03:12:45;;;;;;;0.20;0.20;;;5.90;99.90;;;;;;4926307;29;20212;-50
2021/12/01 03:15:16;;;;;;;0.00;0.00;;;5.90;99.90;;;;;;4931758;29;20221;-50
2021/12/01 03:18:03;;;;;;;0.20;0.10;;;5.90;99.90;;;;;;4927071;29;20261;-48
2021/12/01 03:20:51;;;;;;;0.00;0.00;;;5.80;99.90;;;;;;4938934;29;20283;-53
2021/12/01 03:23:19;;;;;;;0.00;0.00;;;5.90;99.90;;;;;;4933226;29;20211;-48
2021/12/01 03:25:48;;;;;;;0.00;0.00;;;5.80;99.90;;;;;;4932457;29;20229;-53
2021/12/01 03:28:17;;;;;;;0.10;0.10;;;5.80;99.90;;;;;;4929336;29;20205;-48
2021/12/01 03:30:45;;;;;;;0.03;0.03;;;5.90;99.90;;;;;;4932550;29;20653;-48
2021/12/01 03:33:14;;;;;;;0.10;0.10;;;5.90;99.90;;;;;;4923465;29;20646;-49
2021/12/01 03:35:46;;;;;;;2.00;0.10;;;5.80;99.90;;;;;;4933188;29;20224;-49
2021/12/01 03:38:14;;;;;;;0.00;0.00;;;5.60;99.90;;;;;;4933866;29;20196;-50
2021/12/01 03:40:43;;;;;;;0.00;0.00;;;5.90;99.90;;;;;;4928605;29;20499;-50
2021/12/01 03:43:19;;;;;;;8.50;0.23;;;5.80;99.90;;;;;;4931983;29;20192;-48
2021/12/01 03:45:47;;;;;;;0.00;0.00;;;5.90;99.90;;;;;;4934722;29;20313;-50
2021/12/01 03:48:15;;;;;;;0.00;0.00;;;5.90;99.90;;;;;;4926419;29;20196;-49
2021/12/01 03:50:48;;;;;;;0.00;0.00;;;5.90;99.90;;;;;;4933913;29;20193;-48
2021/12/01 03:53:17;;;;;;;0.00;0.00;;;5.90;99.90;;;;;;4931898;29;20215;-50
2021/12/01 03:55:46;;;;;;;0.20;0.10;;;5.90;99.90;;;;;;4933452;29;20252;-48
2021/12/01 03:58:14;;;;;;;0.10;0.10;;;5.90;99.90;;;;;;4932025;29;20563;-48
2021/12/01 04:00:43;;;;;;;0.50;0.20;;;5.90;99.90;;;;;;4927944;29;20210;-48
2021/12/01 04:03:11;;;;;;;0.10;0.10;;;6.00;99.90;;;;;;4925435;29;20229;-51
2021/12/01 04:05:40;;;;;;;0.10;0.10;;;6.00;99.90;;;;;;4931638;29;20219;-50
2021/12/01 04:08:08;;;;;;;0.20;0.13;;;6.00;99.90;;;;;;4930132;29;20200;-48
2021/12/01 04:10:36;;;;;;;0.13;0.13;;;6.10;99.90;;;;;;4926861;29;20195;-48
2021/12/01 04:13:04;;;;;;;0.20;0.10;;;6.10;99.90;;;;;;4929328;29;20200;-52
2021/12/01 04:15:32;;;;;;;0.13;0.10;;;6.10;99.90;;;;;;4935570;29;20223;-48
2021/12/01 04:18:01;;;;;;;0.27;0.27;;;6.10;99.90;;;;;;4929196;29;20217;-48
2021/12/01 04:20:29;;;;;;;0.10;0.10;;;6.10;99.90;;;;;;4931886;29;20204;-48
2021/12/01 04:22:57;;;;;;;0.30;0.30;;;6.10;99.90;;;;;;4932813;29;20217;-48
2021/12/01 04:25:25;;;;;;;0.30;0.30;;;6.10;99.90;;;;;;4929407;29;20219;-48
2021/12/01 04:27:53;;;;;;;0.60;0.23;;;6.10;99.90;;;;;;4929991;29;20547;-48
2021/12/01 04:30:23;;;;;;;0.60;0.33;;;6.10;99.90;;;;;;4930164;29;20191;-48
2021/12/01 04:32:52;;;;;;;3.17;0.23;;;6.10;99.90;;;;;;4932495;29;20200;-50
2021/12/01 04:35:24;;;;;;;1.07;0.47;;;6.10;99.90;;;;;;4928374;29;20213;-51
2021/12/01 04:37:53;;;;;;;0.17;0.17;;;6.00;99.90;;;;;;4931735;29;20193;-48
2021/12/01 04:40:21;;;;;;;0.20;0.20;;;6.10;99.90;;;;;;4932128;29;20196;-51
2021/12/01 04:42:49;;;;;;;0.57;0.13;;;6.10;99.90;;;;;;4928734;29;20205;-52
2021/12/01 04:45:19;;;;;;;1.70;0.30;;;6.20;99.90;;;;;;4932799;29;20220;-49
2021/12/01 04:47:48;;;;;;;0.17;0.17;;;6.10;99.90;;;;;;4931912;29;20188;-52
2021/12/01 04:50:19;;;;;;;0.20;0.20;;;6.10;99.90;;;;;;4925082;29;20208;-48
2021/12/01 04:52:49;;;;;;;0.53;0.40;;;6.10;99.90;;;;;;4934216;29;20200;-50
2021/12/01 04:55:17;;;;;;;0.27;0.20;;;6.10;99.90;;;;;;4933476;29;20208;-50
2021/12/01 04:57:47;;;;;;;0.27;0.20;;;6.20;99.90;;;;;;4930348;29;20658;-52
2021/12/01 05:00:18;;;;;;;0.20;0.20;;;6.10;99.90;;;;;;4929312;29;20197;-51
2021/12/01 05:02:45;;;;;;;0.83;0.53;;;6.20;99.90;;;;;;4929262;29;20209;-51
2021/12/01 05:05:14;;;;;;;0.63;0.50;;;6.20;99.90;;;;;;4924354;29;20209;-48
2021/12/01 05:07:43;;;;;;;0.53;0.10;;;6.20;99.90;;;;;;4946763;29;20189;-50
2021/12/01 05:10:12;;;;;;;0.40;0.40;;;6.20;99.90;;;;;;4929892;29;20192;-50
2021/12/01 05:12:40;;;;;;;0.70;0.30;;;6.20;99.90;;;;;;4928888;29;20200;-48
2021/12/01 05:15:08;;;;;;;0.23;0.23;;;6.20;99.90;;;;;;4928769;29;20585;-50
2021/12/01 05:17:36;;;;;;;0.80;0.40;;;6.20;99.90;;;;;;4925439;29;20194;-51
2021/12/01 05:20:05;;;;;;;0.50;0.40;;;6.90;99.90;;;;;;4924136;29;20192;-50
2021/12/01 05:22:34;;;;;;;0.40;0.30;;;6.20;99.90;;;;;;4934636;29;20694;-48
2021/12/01 05:25:01;;;;;;;0.10;0.10;;;6.20;99.90;;;;;;4933629;29;20222;-48
2021/12/01 05:27:31;;;;;;;1.80;0.30;;;6.30;99.90;;;;;;4935298;29;20189;-48
2021/12/01 05:29:58;;;;;;;0.10;0.10;;;6.30;99.90;;;;;;4936328;29;20198;-52
2021/12/01 05:32:26;;;;;;;0.00;0.00;;;6.20;99.90;;;;;;4951310;29;20191;-51
2021/12/01 05:34:56;;;;;;;0.37;0.13;;;6.30;99.90;;;;;;4943987;28;20217;-51
2021/12/01 05:37:24;;;;;;;0.30;0.30;;;6.30;99.90;;;;;;4930220;29;20203;-51
2021/12/01 05:40:19;;;;;;;0.30;0.30;;;6.30;99.90;;;;;;4941707;29;20189;-49
2021/12/01 05:42:48;;;;;;;0.53;0.33;;;6.30;99.90;;;;;;4932769;29;20212;-50
2021/12/01 05:45:16;;;;;;;0.30;0.30;;;6.30;99.90;;;;;;4933991;29;20220;-50
2021/12/01 05:47:44;;;;;;;0.20;0.20;;;6.30;99.90;;;;;;4936194;29;20205;-51
2021/12/01 05:50:11;;;;;;;0.10;0.10;;;6.40;99.90;;;;;;4934468;29;20196;-53
2021/12/01 05:52:39;;;;;;;0.20;0.20;;;6.40;99.90;;;;;;4934715;29;20200;-49
2021/12/01 05:55:10;;;;;;;0.83;0.20;;;6.40;99.90;;;;;;4935195;29;20231;-50
2021/12/01 05:57:38;;;;;;;1.30;0.40;;;6.40;99.90;;;;;;4935991;29;20201;-49
2021/12/01 06:00:11;;;;;;;0.37;0.30;;;6.40;99.90;;;;;;4933984;29;20201;-49
2021/12/01 06:02:42;;;;;;;0.60;0.37;;;6.40;99.90;;;;;;4944743;28;20198;-48
2021/12/01 06:05:10;;;;;;;0.80;0.30;;;6.40;99.90;;;;;;4931297;29;20296;-53
2021/12/01 06:07:38;;;;;;;0.03;0.03;;;6.40;99.90;;;;;;4941682;29;20184;-49
2021/12/01 06:10:30;;;;;;;0.63;0.33;;;6.40;99.90;;;;;;4925988;29;20593;-54
2021/12/01 06:13:24;;;;;;;0.20;0.10;;;6.40;99.90;;;;;;4932512;29;20201;-50
2021/12/01 06:16:19;;;;;;;1.13;0.53;;;6.40;99.90;;;;;;4934449;29;20223;-53
2021/12/01 06:19:12;;;;;;;0.23;0.20;;;6.30;99.90;;;;;;4960345;28;20187;-50
2021/12/01 06:22:04;;;;;;;0.20;0.20;;;6.40;99.90;;;;;;4952719;28;20661;-51
2021/12/01 06:24:56;;;;;;;0.30;0.30;;;6.40;99.90;;;;;;4935335;29;20219;-49
2021/12/01 06:27:48;;;;;;;1.13;0.20;;;6.40;99.90;;;;;;4949072;28;20200;-50
2021/12/01 06:30:40;;;;;;;0.30;0.30;;;6.40;99.90;;;;;;4964916;28;20598;-49
2021/12/01 06:33:33;;;;;;;0.23;0.17;;;6.40;99.90;;;;;;4939807;29;20193;-51
2021/12/01 06:36:24;;;;;;;0.20;0.20;;;6.30;99.90;;;;;;4927911;29;20225;-52
2021/12/01 06:39:17;;;;;;;0.70;0.37;;;6.30;99.90;;;;;;4946984;29;20192;-54
2021/12/01 06:42:09;;;;;;;0.37;0.20;;;6.30;99.90;;;;;;4920171;29;20211;-52
2021/12/01 06:45:01;;;;;;;0.20;0.20;;;6.40;99.90;;;;;;4955781;28;20228;-50
2021/12/01 06:47:52;;;;;;;0.40;0.33;;;6.40;99.90;;;;;;4954755;28;20196;-48
2021/12/01 06:50:46;;;;;;;0.40;0.40;;;6.30;99.90;;;;;;4954270;28;20259;-53
2021/12/01 06:53:38;;;;;;;1.03;0.40;;;6.30;99.90;;;;;;4951935;28;20199;-52
2021/12/01 06:56:30;;;;;;;0.97;0.50;;;6.30;99.90;;;;;;4933133;29;20220;-49
2021/12/01 06:59:22;;;;;;;0.20;0.20;;;6.10;99.90;;;;;;4942746;29;20653;-50
2021/12/01 07:02:15;;;;;;;0.50;0.50;;;6.30;99.90;;;;;;4956430;28;20216;-53
2021/12/01 07:05:09;;;;;;;0.23;0.23;;;6.30;99.90;;;;;;4949214;28;20216;-50
2021/12/01 07:08:02;;;;;;;0.60;0.40;;;6.40;99.90;;;;;;4931884;29;20665;-49
2021/12/01 07:11:04;;;;;;;0.37;0.30;;;6.30;99.90;;;;;;4950558;28;20193;-51
2021/12/01 07:13:33;;;;;;;0.10;0.10;;;6.30;99.90;;;;;;4949779;28;20195;-51
2021/12/01 07:16:20;;;;;;;0.20;0.20;;;6.30;99.90;;;;;;4937517;28;20216;-50
2021/12/01 07:18:48;;;;;;;0.83;0.47;;;6.30;99.90;;;;;;4951142;28;20195;-49
2021/12/01 07:21:22;;;;;;;0.40;0.30;;;6.30;99.90;;;;;;4939512;29;20188;-51
2021/12/01 07:23:54;;;;;;;0.27;0.27;;;6.30;99.90;;;;;;4926927;29;20207;-51
2021/12/01 07:26:47;;;;;;;0.30;0.30;;;6.30;99.90;;;;;;4921807;29;20216;-48
2021/12/01 07:29:15;;;;;;;0.47;0.37;;;;;;;;;;4952000;29;20197;-49
2021/12/01 07:31:48;;;;;;;0.50;0.40;;;6.30;99.90;;;;;;4950119;28;20189;-49
2021/12/01 07:34:16;;;;;;;2.30;0.43;;;6.30;99.90;;;;;;4953884;28;20189;-50
2021/12/01 07:36:44;;;;;;;0.83;0.10;;;6.40;99.90;;;;;;4935844;29;20212;-48
2021/12/01 07:39:13;;;;;;;0.23;0.23;;;6.40;99.90;;;;;;4949990;28;20193;-52
2021/12/01 07:41:41;;;;;;;0.20;0.20;;;6.40;99.90;;;;;;4932213;29;20204;-50
2021/12/01 07:44:24;;;;;;;0.67;0.40;;;6.70;99.90;;;;;;4934621;29;20204;-49
2021/12/01 07:46:51;;;;;;;0.10;0.10;;;6.40;99.90;;;;;;4954177;28;20207;-50
2021/12/01 07:49:19;;;;;;;0.47;0.30;;;6.40;99.90;;;;;;4929035;29;20181;-53
2021/12/01 07:51:47;;;;;;;0.30;0.30;;;6.40;99.90;;;;;;4936382;29;20203;-54
2021/12/01 07:54:16;;;;;;;0.30;0.13;;;6.50;99.90;;;;;;4949067;28;20212;-50
2021/12/01 07:56:47;;;;;;;0.43;0.30;;;6.50;99.90;;;;;;4944149;28;20232;-49
2021/12/01 07:59:17;;;;;;;0.67;0.50;;;6.50;99.90;;;;;;4953165;28;20202;-50
2021/12/01 08:01:46;;;;;;;0.40;0.37;;;6.50;99.90;;;;;;4954540;29;20196;-49
2021/12/01 08:04:20;;;;;;;0.20;0.20;;;6.50;99.90;;;;;;4947873;29;20219;-48
2021/12/01 08:06:48;;;;;;;0.13;0.10;;;6.50;99.90;;;;;;4933457;29;20204;-50
2021/12/01 08:09:17;;;;;;;0.80;0.30;;;6.50;99.90;;;;;;4921240;28;20569;-50
2021/12/01 08:11:45;;;;;;;0.63;0.30;;;6.50;99.90;;;;;;4934507;28;20204;-50
2021/12/01 08:14:13;;;;;;;1.10;0.30;;;6.60;99.90;;;;;;4948586;28;20192;-51
2021/12/01 08:16:49;;;;;;;0.70;0.70;;;6.60;99.90;;;;;;4927848;28;20214;-52
2021/12/01 08:19:27;;;;;;;0.20;0.20;;;6.60;99.90;;;;;;4945541;28;20316;-50
2021/12/01 08:22:09;;;;;;;0.20;0.20;;;6.60;99.90;;;;;;4944803;28;20193;-49
2021/12/01 08:24:44;;;;;;;0.70;0.70;;;6.60;99.90;;;;;;4946938;28;20217;-55
2021/12/01 08:27:13;;;;;;;0.10;0.10;;;6.70;99.90;;;;;;4948035;28;20203;-53
2021/12/01 08:29:41;;;;;;;0.17;0.17;;;6.70;99.90;;;;;;4942489;28;20200;-54
2021/12/01 08:32:09;;;;;;;0.30;0.30;;;6.70;99.90;;;;;;4930866;29;20189;-52
2021/12/01 08:34:37;;;;;;;0.40;0.40;;;6.70;99.90;;;;;;4949311;28;20199;-54
2021/12/01 08:37:08;;;;;;;0.20;0.20;;;6.70;99.90;;;;;;4956861;28;20189;-52
2021/12/01 08:39:36;;;;;;;0.63;0.50;;;6.70;99.90;;;;;;4956035;28;20192;-50
2021/12/01 08:42:05;;;;;;;0.20;0.20;;;6.70;99.90;;;;;;4936939;29;20188;-50
2021/12/01 08:44:33;;;;;;;0.30;0.30;;;7.00;99.90;;;;;;4953722;28;20220;-52
2021/12/01 08:47:05;;;;;;;0.00;0.00;;;6.70;99.90;;;;;;4931169;29;20214;-51
2021/12/01 08:49:33;;;;;;;0.57;0.20;;;6.70;99.90;;;;;;4940614;29;20195;-53
2021/12/01 08:52:01;;;;;;;0.23;0.23;;;6.80;99.90;;;;;;4934385;28;20204;-49
2021/12/01 08:54:28;;;;;;;0.37;0.17;;;6.80;99.90;;;;;;4955520;28;20196;-49
2021/12/01 08:56:57;;;;;;;0.43;0.33;;;6.70;99.90;;;;;;4941021;29;20562;-50
2021/12/01 08:59:26;;;;;;;0.30;0.20;;;6.70;99.90;;;;;;4946677;28;20204;-49
2021/12/01 09:01:54;;;;;;;1.03;0.20;;;6.80;99.90;;;;;;4936886;29;20196;-51
2021/12/01 09:04:22;;;;;;;0.73;0.30;;;6.80;99.90;;;;;;4945357;29;20208;-52
2021/12/01 09:06:50;;;;;;;0.23;0.23;;;6.80;99.90;;;;;;4953607;29;20637;-48
2021/12/01 09:09:19;;;;;;;0.00;0.00;;;6.80;99.90;;;;;;4929588;29;20563;-49
2021/12/01 09:11:47;;;;;;;0.10;0.10;;;6.80;99.90;;;;;;4949559;28;20201;-54
2021/12/01 09:14:15;;;;;;;0.07;0.07;;;6.70;99.90;;;;;;4936561;29;20585;-51
2021/12/01 09:16:47;;;;;;;0.47;0.47;;;6.80;99.90;;;;;;4958238;28;20313;-51
2021/12/01 09:19:15;;;;;;;0.10;0.10;;;6.80;99.90;;;;;;4935869;29;20224;-50
2021/12/01 09:21:43;;;;;;;0.27;0.20;;;6.80;99.90;;;;;;4954196;28;20199;-52
2021/12/01 09:28:04;;;;;;;0.10;0.10;;;6.70;99.90;;;;;;4926469;29;20192;-51
2021/12/01 09:31:00;;;;;;;0.17;0.17;;;6.80;99.90;;;;;;4943413;28;20192;-52
2021/12/01 09:33:33;;;;;;;0.20;0.10;;;6.80;99.90;;;;;;4950750;28;20192;-50
2021/12/01 09:36:01;;;;;;;0.10;0.10;;;6.70;99.90;;;;;;4949849;28;20224;-52
2021/12/01 09:38:29;;;;;;;0.17;0.10;;;6.80;99.90;;;;;;4946364;29;20251;-51
2021/12/01 09:40:58;;;;;;;0.30;0.20;;;6.80;99.90;;;;;;4936644;29;20214;-50
2021/12/01 09:43:31;;;;;;;0.10;0.10;;;6.70;99.90;;;;;;4944572;28;20212;-51
2021/12/01 09:46:04;;;;;;;0.20;0.10;;;6.80;99.90;;;;;;4926149;28;20236;-54
2021/12/01 09:48:47;;;;;;;0.00;0.00;;;6.80;99.90;;;;;;4919233;28;20684;-52
2021/12/01 09:51:17;;;;;;;0.20;0.20;;;6.80;99.90;;;;;;4934660;28;20212;-51
2021/12/01 09:53:46;;;;;;;0.10;0.10;;;6.80;99.90;;;;;;4953070;28;20196;-50
2021/12/01 09:56:14;;;;;;;0.10;0.10;;;6.80;99.90;;;;;;4929065;29;20213;-48
2021/12/01 09:58:43;;;;;;;0.03;0.03;;;6.80;99.90;;;;;;4953172;29;20203;-49
2021/12/01 10:01:47;;;;;;;0.30;0.17;;;6.80;99.90;;;;;;4940135;29;20184;-53
2021/12/01 10:04:17;;;;;;;0.20;0.20;;;6.80;99.90;;;;;;4949412;29;20208;-52
2021/12/01 10:07:15;;;;;;;0.10;0.10;;;6.80;99.90;;;;;;4935357;29;20301;-52
2021/12/01 10:09:45;;;;;;;0.20;0.20;;;6.80;99.90;;;;;;4942701;28;20200;-50
2021/12/01 10:12:14;;;;;;;0.10;0.10;;;6.80;99.90;;;;;;4945517;28;20200;-51
2021/12/01 10:14:45;;;;;;;0.00;0.00;;;6.80;99.90;;;;;;4949726;28;20533;-48
2021/12/01 10:17:14;;;;;;;0.40;0.40;;;6.90;99.90;;;;;;4953772;28;20184;-51
2021/12/01 10:19:43;;;;;;;0.10;0.10;;;6.90;99.90;;;;;;4939195;29;20565;-51
2021/12/01 10:22:12;;;;;;;0.60;0.20;;;6.90;99.90;;;;;;4942643;29;20212;-49
2021/12/01 10:24:45;;;;;;;2.80;0.33;;;6.90;99.90;;;;;;4955387;28;20205;-49
2021/12/01 10:27:14;;;;;;;0.27;0.27;;;6.90;99.90;;;;;;4945751;29;20197;-51
2021/12/01 10:29:44;;;;;;;0.50;0.50;;;7.00;99.90;;;;;;4954669;28;20195;-51
2021/12/01 10:32:16;;;;;;;0.97;0.97;;;7.00;99.90;;;;;;4961805;28;20653;-52
2021/12/01 10:34:50;;;;;;;1.23;0.50;;;7.00;99.90;;;;;;4955409;29;20213;-51
2021/12/01 10:37:23;;;;;;;0.70;0.50;;;7.10;99.90;;;;;;4945667;29;20189;-53
2021/12/01 10:40:06;;;;;;;0.47;0.30;;;7.20;99.90;;;;;;4952119;28;20206;-52
2021/12/01 10:42:34;;;;;;;0.10;0.10;;;7.20;99.90;;;;;;4960340;28;20196;-51
2021/12/01 10:45:05;;;;;;;0.20;0.20;;;7.20;99.90;;;;;;4939114;29;20212;-49
2021/12/01 10:47:48;;;;;;;0.10;0.10;;;7.30;99.90;;;;;;4932177;28;20180;-50
2021/12/01 10:50:19;;;;;;;0.23;0.23;;;7.40;99.90;;;;;;4933523;29;20185;-51
2021/12/01 10:52:50;;;;;;;0.20;0.20;;;7.20;99.90;;;;;;4955978;29;20219;-50
2021/12/01 10:55:19;;;;;;;0.60;0.10;;;7.30;99.90;;;;;;4956006;29;20216;-48
2021/12/01 10:57:49;;;;;;;1.17;0.20;;;7.30;99.90;;;;;;4958921;28;20556;-51
2021/12/01 11:00:21;;;;;;;0.00;0.00;;;7.30;99.90;;;;;;4935350;29;20658;-52
2021/12/01 11:02:49;;;;;;;0.10;0.10;;;7.30;99.90;;;;;;4945926;28;20642;-49
2021/12/01 11:05:30;;;;;;;0.40;0.40;;;7.30;99.90;;;;;;4940812;29;20319;-52
2021/12/01 11:08:09;;;;;;;0.47;0.40;;;7.30;99.90;;;;;;4947656;29;20196;-52
2021/12/01 11:10:55;;;;;;;0.30;0.30;;;7.30;99.90;;;;;;4928672;29;20207;-53
2021/12/01 11:13:24;;;;;;;0.10;0.10;;;7.20;99.90;;;;;;4938545;29;20202;-54
2021/12/01 11:15:54;;;;;;;0.10;0.10;;;7.30;99.90;;;;;;4938443;29;20208;-53
2021/12/01 11:18:44;;;;;;;0.10;0.10;;;7.30;99.90;;;;;;4951350;28;20200;-50
2021/12/01 11:21:17;;;;;;;0.20;0.10;;;7.30;99.90;;;;;;4957069;28;20195;-48
2021/12/01 11:23:56;;;;;;;1.07;0.13;;;7.30;99.90;;;;;;4934870;29;20291;-50
2021/12/01 11:26:26;;;;;;;0.10;0.10;;;7.30;99.90;;;;;;4955433;28;20231;-49
2021/12/01 11:28:56;;;;;;;0.80;0.40;;;7.40;99.90;;;;;;4934252;29;20192;-51
2021/12/01 11:31:26;;;;;;;0.00;0.00;;;7.40;99.90;;;;;;4957602;28;20637;-50
2021/12/01 11:33:56;;;;;;;0.83;0.20;;;7.40;99.90;;;;;;4937107;28;20252;-48
2021/12/01 11:36:30;;;;;;;0.10;0.10;;;7.50;99.90;;;;;;4932442;29;20299;-48
2021/12/01 11:39:17;;;;;;;0.10;0.10;;;7.50;99.90;;;;;;4938318;29;20192;-52
2021/12/01 11:41:47;;;;;;;0.10;0.10;;;7.50;99.90;;;;;;4938257;28;20198;-50
2021/12/01 11:44:26;;;;;;;0.10;0.10;;;7.60;99.90;;;;;;4949950;29;20282;-51
2021/12/01 11:46:54;;;;;;;0.10;0.10;;;7.60;99.90;;;;;;4931700;29;20193;-50
2021/12/01 11:49:24;;;;;;;3.27;2.50;;;7.60;99.90;;;;;;4932293;28;20229;-50
2021/12/01 11:51:59;;;;;;;0.20;0.20;;;7.60;99.90;;;;;;4938005;29;20253;-48
2021/12/01 11:54:28;;;;;;;0.10;0.10;;;7.60;99.90;;;;;;4953468;29;20219;-51
2021/12/01 11:56:57;;;;;;;0.00;0.00;;;7.70;99.90;;;;;;4959451;28;20196;-49
2021/12/01 12:00:03;;;;;;;0.10;0.10;;;7.80;99.90;;;;;;4937238;29;20195;-52
2021/12/01 12:02:31;;;;;;;1.17;0.30;;;7.80;99.90;;;;;;4935865;29;20196;-51
2021/12/01 12:05:17;;;;;;;0.07;0.07;;;7.80;99.90;;;;;;4935646;29;20213;-48
2021/12/01 12:07:46;;;;;;;0.10;0.10;;;7.80;99.90;;;;;;4952274;29;20188;-52
2021/12/01 12:10:16;;;;;;;0.13;0.10;;;7.80;99.90;;;;;;4934121;29;20208;-50
2021/12/01 12:13:00;;;;;;;0.23;0.23;;;7.90;99.90;;;;;;4953615;28;20192;-53
2021/12/01 12:15:51;;;;;;;0.63;0.53;;;7.90;99.90;;;;;;4967074;28;20216;-48
2021/12/01 12:18:52;;;;;;;2.40;0.30;;;7.90;99.90;;;;;;4937688;29;20188;-49
2021/12/01 12:21:59;;;;;;;0.00;0.00;;;7.90;99.90;;;;;;4939653;29;20212;-50
2021/12/01 12:24:42;;;;;;;1.17;0.20;;;7.90;99.90;;;;;;4936935;29;20188;-49
2021/12/01 12:27:31;;;;;;;0.57;0.43;;;8.00;99.90;;;;;;4936541;29;20196;-48
2021/12/01 12:29:59;;;;;;;0.23;0.23;;;8.00;99.90;;;;;;4933488;29;20196;-49
2021/12/01 12:32:30;;;;;;;0.30;0.30;;;8.10;99.90;;;;;;4932964;29;20184;-48
2021/12/01 12:35:01;;;;;;;0.47;0.47;;;8.10;99.90;;;;;;4962236;28;20204;-49
2021/12/01 12:37:31;;;;;;;0.80;0.27;;;8.10;99.90;;;;;;4958755;28;20197;-52
2021/12/01 12:40:33;;;;;;;0.10;0.10;;;8.20;99.90;;;;;;4953711;29;20196;-48
2021/12/01 12:43:08;;;;;;;0.00;0.00;;;8.20;99.90;;;;;;4953548;29;20208;-54
2021/12/01 12:45:38;;;;;;;0.10;0.10;;;8.20;99.90;;;;;;4936536;29;20215;-54
2021/12/01 12:48:25;;;;;;;0.23;0.17;;;8.20;99.90;;;;;;4930824;29;20204;-51
2021/12/01 12:51:17;;;;;;;0.10;0.10;;;8.20;99.90;;;;;;4956626;28;20202;-53
2021/12/01 12:54:17;;;;;;;0.73;0.50;;;8.30;99.90;;;;;;4935014;29;20554;-52
2021/12/01 12:56:54;;;;;;;0.17;0.17;;;8.30;99.90;;;;;;4954079;28;20214;-50
2021/12/01 12:59:29;;;;;;;0.00;0.00;;;8.30;99.90;;;;;;4935896;29;20574;-50
2021/12/01 13:02:31;;;;;;;0.00;0.00;;;8.30;99.90;;;;;;4935114;29;20191;-49
2021/12/01 13:05:05;;;;;;;0.00;0.00;;;8.30;99.90;;;;;;4949344;28;20332;-49
2021/12/01 13:07:51;;;;;;;0.00;0.00;;;8.40;99.90;;;;;;4927335;29;20200;-52
2021/12/01 13:10:23;;;;;;;0.00;0.00;;;8.40;99.90;;;;;;4957180;28;20193;-51
2021/12/01 13:13:36;;;;;;;0.10;0.10;;;8.40;99.90;;;;;;4937405;28;20197;-49
2021/12/01 13:16:08;;;;;;;0.10;0.10;;;8.40;99.90;;;;;;4927158;28;20323;-53
2021/12/01 13:18:38;;;;;;;0.00;0.00;;;8.40;99.90;;;;;;4934533;29;20196;-52
2021/12/01 13:21:08;;;;;;;0.00;0.00;;;8.40;99.90;;;;;;4936507;29;20666;-50
2021/12/01 13:23:44;;;;;;;0.10;0.10;;;8.40;99.90;;;;;;4935308;29;20196;-49
2021/12/01 13:26:14;;;;;;;0.67;0.67;;;8.40;99.90;;;;;;4949791;28;20220;-49
2021/12/01 13:28:48;;;;;;;0.10;0.10;;;8.40;99.90;;;;;;4952647;28;20203;-49
2021/12/01 13:31:23;;;;;;;0.10;0.10;;;8.40;99.90;;;;;;4942721;28;20283;-50
2021/12/01 13:33:58;;;;;;;0.00;0.00;;;8.40;99.90;;;;;;4927615;28;20192;-50
2021/12/01 13:36:40;;;;;;;0.00;0.00;;;8.40;99.90;;;;;;4938126;29;20212;-51
2021/12/01 13:39:14;;;;;;;0.23;0.13;;;8.50;99.90;;;;;;4937924;28;20188;-52
2021/12/01 13:42:03;;;;;;;0.03;0.03;;;8.50;99.90;;;;;;4938476;29;20190;-49
2021/12/01 13:44:37;;;;;;;0.17;0.17;;;8.50;99.90;;;;;;4941383;29;20642;-49